createdAt,value
2019-02-26T00:01:30.831Z,15.37
2019-02-26T00:04:00.786Z,17.47
2019-02-26T00:06:30.609Z,15.67
2019-02-26T00:09:01.937Z,12.17
2019-02-26T00:11:33.445Z,14.43
2019-02-26T00:14:03.318Z,14.20
2019-02-26T00:16:37.643Z,13.17
2019-02-26T00:19:05.546Z,12.30
2019-02-26T00:21:36.162Z,9.97
2019-02-26T00:24:07.321Z,13.10
2019-02-26T00:26:38.566Z,13.70
2019-02-26T00:29:08.844Z,12.67
2019-02-26T00:31:38.761Z,10.57
2019-02-26T00:34:10.768Z,14.03
2019-02-26T00:36:40.069Z,15.20
2019-02-26T00:39:10.207Z,11.30
2019-02-26T00:41:40.443Z,12.70
2019-02-26T00:44:10.196Z,11.13
2019-02-26T00:46:39.852Z,11.83
2019-02-26T00:49:09.657Z,17.07
2019-02-26T00:51:41.723Z,12.43
2019-02-26T00:54:10.913Z,16.20
2019-02-26T00:56:41.085Z,12.70
2019-02-26T00:59:10.838Z,10.97
2019-02-26T01:01:44.074Z,11.30
2019-02-26T01:04:12.230Z,12.47
2019-02-26T01:06:41.970Z,11.83
2019-02-26T01:09:13.418Z,12.53
2019-02-26T01:11:45.071Z,12.40
2019-02-26T01:14:15.787Z,15.10
2019-02-26T01:16:48.184Z,9.83
2019-02-26T01:19:19.726Z,11.90
2019-02-26T01:21:49.238Z,14.90
2019-02-26T01:24:18.896Z,10.37
2019-02-26T01:26:48.643Z,10.10
2019-02-26T01:29:20.651Z,13.87
2019-02-26T01:31:49.832Z,11.80
2019-02-26T01:34:20.381Z,11.60
2019-02-26T01:36:50.290Z,12.00
2019-02-26T01:39:21.547Z,11.60
2019-02-26T01:41:53.999Z,13.87
2019-02-26T01:44:23.039Z,12.27
2019-02-26T01:46:53.343Z,12.37
2019-02-26T01:49:26.647Z,11.47
2019-02-26T01:51:55.991Z,13.77
2019-02-26T01:54:25.757Z,12.00
2019-02-26T01:56:55.473Z,11.57
2019-02-26T01:59:25.344Z,10.50
2019-02-26T02:01:56.088Z,11.50
2019-02-26T02:04:25.864Z,11.23
2019-02-26T02:06:57.107Z,12.13
2019-02-26T02:09:27.285Z,11.57
2019-02-26T02:11:58.258Z,13.77
2019-02-26T02:14:28.843Z,11.10
2019-02-26T02:16:58.652Z,14.27
2019-02-26T02:19:30.187Z,11.77
2019-02-26T02:21:59.787Z,13.73
2019-02-26T02:24:29.672Z,12.87
2019-02-26T02:27:00.307Z,17.47
2019-02-26T02:29:30.178Z,12.80
2019-02-26T02:32:02.829Z,11.00
2019-02-26T02:34:32.984Z,12.70
2019-02-26T02:37:03.003Z,10.97
2019-02-26T02:39:32.849Z,13.27
2019-02-26T02:42:02.603Z,9.73
2019-02-26T02:44:32.271Z,10.77
2019-02-26T02:47:03.887Z,14.43
2019-02-26T02:49:36.467Z,13.47
2019-02-26T02:52:07.217Z,15.07
2019-02-26T02:54:38.436Z,11.23
2019-02-26T02:57:09.997Z,10.47
2019-02-26T02:59:42.299Z,11.17
2019-02-26T03:02:12.669Z,10.27
2019-02-26T03:04:42.725Z,11.50
2019-02-26T03:07:12.616Z,11.47
2019-02-26T03:09:43.224Z,10.50
2019-02-26T03:12:13.729Z,9.93
2019-02-26T03:14:44.541Z,11.63
2019-02-26T03:17:17.403Z,12.17
2019-02-26T03:19:45.811Z,13.73
2019-02-26T03:22:18.058Z,11.30
2019-02-26T03:24:48.362Z,9.63
2019-02-26T03:27:18.417Z,11.17
2019-02-26T03:29:49.949Z,12.53
2019-02-26T03:32:19.486Z,11.43
2019-02-26T03:34:49.198Z,10.80
2019-02-26T03:37:18.959Z,14.23
2019-02-26T03:39:48.637Z,13.10
2019-02-26T03:42:20.742Z,11.57
2019-02-26T03:44:49.897Z,9.10
2019-02-26T03:47:19.609Z,16.07
2019-02-26T03:49:49.352Z,11.90
2019-02-26T03:52:19.285Z,11.23
2019-02-26T03:54:50.677Z,14.67
2019-02-26T03:57:22.688Z,13.53
2019-02-26T03:59:52.153Z,12.73
2019-02-26T04:02:23.493Z,10.20
2019-02-26T04:04:54.386Z,14.00
2019-02-26T04:07:26.047Z,14.13
2019-02-26T04:09:58.583Z,12.23
2019-02-26T04:12:28.104Z,11.43
2019-02-26T04:14:58.024Z,14.00
2019-02-26T04:17:28.674Z,13.27
2019-02-26T04:19:59.307Z,14.47
2019-02-26T04:22:31.893Z,10.73
2019-02-26T04:25:18.201Z,10.73
2019-02-26T04:27:56.987Z,13.43
2019-02-26T04:30:39.347Z,13.37
2019-02-26T04:33:36.488Z,12.20
2019-02-26T04:36:26.929Z,11.20
2019-02-26T04:39:29.540Z,10.90
2019-02-26T04:42:19.769Z,12.20
2019-02-26T04:45:13.878Z,10.23
2019-02-26T04:48:00.711Z,13.63
2019-02-26T04:50:35.019Z,10.10
2019-02-26T04:53:05.030Z,11.17
2019-02-26T04:55:36.115Z,12.47
2019-02-26T04:58:05.384Z,12.00
2019-02-26T05:00:36.581Z,12.27
2019-02-26T05:03:08.645Z,13.00
2019-02-26T05:05:38.604Z,13.73
2019-02-26T05:08:10.515Z,11.30
2019-02-26T05:10:40.122Z,10.27
2019-02-26T05:13:09.895Z,10.80
2019-02-26T05:15:39.583Z,12.77
2019-02-26T05:18:09.228Z,11.67
2019-02-26T05:20:40.138Z,14.90
2019-02-26T05:23:10.329Z,13.33
2019-02-26T05:25:42.342Z,11.67
2019-02-26T05:28:12.540Z,12.83
2019-02-26T05:30:43.839Z,13.80
2019-02-26T05:33:14.843Z,12.03
2019-02-26T05:35:46.166Z,15.97
2019-02-26T05:38:17.211Z,12.00
2019-02-26T05:40:48.196Z,15.27
2019-02-26T05:43:20.421Z,11.23
2019-02-26T05:45:50.949Z,12.30
2019-02-26T05:48:25.801Z,14.07
2019-02-26T05:50:57.370Z,16.23
2019-02-26T05:53:26.630Z,12.23
2019-02-26T05:55:56.342Z,15.93
2019-02-26T05:58:26.022Z,16.60
2019-02-26T06:00:55.726Z,19.13
2019-02-26T06:03:25.386Z,13.03
2019-02-26T06:05:57.673Z,14.50
2019-02-26T06:08:29.535Z,20.50
2019-02-26T06:10:57.929Z,18.10
2019-02-26T06:13:29.050Z,18.20
2019-02-26T06:16:02.164Z,18.83
2019-02-26T06:18:31.970Z,16.43
2019-02-26T06:21:01.664Z,17.27
2019-02-26T06:23:33.930Z,19.70
2019-02-26T06:26:09.295Z,17.57
2019-02-26T06:28:40.177Z,17.97
2019-02-26T06:31:11.456Z,18.93
2019-02-26T06:33:41.283Z,16.27
2019-02-26T06:36:12.151Z,18.10
2019-02-26T06:38:41.860Z,19.17
2019-02-26T06:41:11.674Z,20.27
2019-02-26T06:43:45.007Z,16.07
2019-02-26T06:46:14.141Z,17.50
2019-02-26T06:48:44.163Z,19.40
2019-02-26T06:51:13.858Z,19.27
2019-02-26T06:53:47.150Z,24.70
2019-02-26T06:56:16.012Z,31.67
2019-02-26T06:58:47.464Z,19.77
2019-02-26T07:01:18.857Z,23.03
2019-02-26T07:03:48.581Z,29.40
2019-02-26T07:06:20.541Z,24.43
2019-02-26T07:08:51.168Z,20.27
2019-02-26T07:11:21.195Z,23.37
2019-02-26T07:13:50.923Z,21.77
2019-02-26T07:16:21.187Z,22.57
2019-02-26T07:18:51.053Z,24.03
2019-02-26T07:21:20.701Z,21.70
2019-02-26T07:23:51.679Z,22.87
2019-02-26T07:26:23.129Z,19.93
2019-02-26T07:28:52.897Z,23.67
2019-02-26T07:31:24.203Z,31.90
2019-02-26T07:33:55.869Z,23.40
2019-02-26T07:36:27.994Z,28.23
2019-02-26T07:38:57.075Z,25.20
2019-02-26T07:41:29.788Z,32.87
2019-02-26T07:43:59.966Z,31.20
2019-02-26T07:46:29.705Z,32.13
2019-02-26T07:49:01.889Z,32.33
2019-02-26T07:51:31.625Z,25.17
2019-02-26T07:54:02.297Z,28.00
2019-02-26T07:56:32.756Z,21.83
2019-02-26T07:59:06.757Z,23.20
2019-02-26T08:01:35.448Z,20.53
2019-02-26T08:04:06.249Z,25.00
2019-02-26T08:06:38.380Z,19.93
2019-02-26T08:09:10.952Z,21.67
2019-02-26T08:11:41.262Z,21.63
2019-02-26T08:14:11.434Z,18.40
2019-02-26T08:16:41.263Z,20.10
2019-02-26T08:19:10.963Z,22.63
2019-02-26T08:21:40.687Z,19.83
2019-02-26T08:24:12.378Z,18.80
2019-02-26T08:26:43.025Z,21.07
2019-02-26T08:29:13.237Z,18.00
2019-02-26T08:31:46.708Z,19.37
2019-02-26T08:34:15.782Z,17.40
2019-02-26T08:36:46.834Z,21.80
2019-02-26T08:39:16.641Z,21.10
2019-02-26T08:42:08.359Z,17.57
2019-02-26T08:44:38.144Z,26.63
2019-02-26T08:47:11.122Z,19.63
2019-02-26T08:49:40.686Z,16.73
2019-02-26T08:52:10.864Z,17.10
2019-02-26T08:54:40.575Z,15.00
2019-02-26T08:57:11.965Z,16.87
2019-02-26T08:59:42.656Z,16.47
2019-02-26T09:02:13.404Z,12.87
2019-02-26T09:04:45.073Z,18.33
2019-02-26T09:07:16.373Z,17.07
2019-02-26T09:09:48.097Z,19.37
2019-02-26T09:12:19.752Z,21.20
2019-02-26T09:14:49.933Z,16.63
2019-02-26T09:17:23.163Z,20.10
2019-02-26T09:19:56.057Z,15.30
2019-02-26T09:22:23.593Z,12.73
2019-02-26T09:24:54.463Z,18.03
2019-02-26T09:27:27.085Z,15.40
2019-02-26T09:29:56.465Z,13.07
2019-02-26T09:32:28.215Z,16.33
2019-02-26T09:34:59.198Z,12.93
2019-02-26T09:37:28.986Z,14.33
2019-02-26T09:39:59.339Z,11.07
2019-02-26T09:42:32.373Z,14.73
2019-02-26T09:45:01.570Z,14.43
2019-02-26T09:47:33.477Z,12.83
2019-02-26T09:50:03.335Z,11.70
2019-02-26T09:52:33.027Z,12.40
2019-02-26T09:55:02.750Z,11.73
2019-02-26T09:57:32.523Z,13.43
2019-02-26T10:00:03.329Z,20.40
2019-02-26T10:02:33.378Z,14.03
2019-02-26T10:05:03.051Z,17.57
2019-02-26T10:07:35.541Z,17.33
2019-02-26T10:10:08.471Z,11.17
2019-02-26T10:12:39.336Z,10.90
2019-02-26T10:15:13.159Z,10.83
2019-02-26T10:17:45.091Z,12.20
2019-02-26T10:20:30.993Z,9.40
2019-02-26T10:23:00.662Z,8.60
2019-02-26T10:25:31.978Z,11.37
2019-02-26T10:28:05.710Z,13.67
2019-02-26T10:30:34.031Z,9.77
2019-02-26T10:33:06.430Z,8.90
2019-02-26T10:35:38.720Z,9.10
2019-02-26T10:38:11.115Z,9.90
2019-02-26T10:40:50.613Z,8.60
2019-02-26T10:43:11.073Z,9.33
2019-02-26T10:45:42.457Z,12.67
2019-02-26T10:48:13.756Z,9.50
2019-02-26T10:50:46.966Z,9.57
2019-02-26T10:53:19.361Z,9.37
2019-02-26T10:55:47.612Z,12.53
2019-02-26T10:58:17.403Z,13.57
2019-02-26T11:00:52.064Z,10.70
2019-02-26T11:03:20.594Z,9.20
2019-02-26T11:05:52.168Z,8.90
2019-02-26T11:08:24.553Z,14.10
2019-02-26T11:10:53.413Z,10.73
2019-02-26T11:13:25.677Z,6.73
2019-02-26T11:15:57.571Z,8.93
2019-02-26T11:18:26.149Z,8.50
2019-02-26T11:20:58.434Z,9.90
2019-02-26T11:23:30.968Z,9.80
2019-02-26T11:25:59.371Z,7.80
2019-02-26T11:28:32.721Z,11.07
2019-02-26T11:31:00.664Z,10.00
2019-02-26T11:33:30.540Z,13.87
2019-02-26T11:36:00.489Z,13.70
2019-02-26T11:38:30.224Z,13.00
2019-02-26T11:41:00.034Z,13.63
2019-02-26T11:43:29.731Z,12.37
2019-02-26T11:46:01.388Z,13.27
2019-02-26T11:48:33.185Z,14.33
2019-02-26T11:51:02.592Z,14.63
2019-02-26T11:53:32.349Z,18.17
2019-02-26T11:56:02.165Z,18.60
